sensor_id;sensor_type;location;lat;lon;timestamp;P1;durP1;ratioP1;P2;durP2;ratioP2
68196;SDS011;55019;49.382;11.358;2024-03-02T00:00:19;18.92;;;8.30;;
68196;SDS011;55019;49.382;11.358;2024-03-02T00:05:13;19.50;;;8.30;;
68196;SDS011;55019;49.382;11.358;2024-03-02T00:07:41;24.35;;;10.02;;
68196;SDS011;55019;49.382;11.358;2024-03-02T00:10:08;20.95;;;9.13;;
68196;SDS011;55019;49.382;11.358;2024-03-02T00:12:39;24.00;;;10.38;;
68196;SDS011;55019;49.382;11.358;2024-03-02T00:17:47;23.70;;;10.07;;
68196;SDS011;55019;49.382;11.358;2024-03-02T00:20:18;21.27;;;9.30;;
68196;SDS011;55019;49.382;11.358;2024-03-02T00:22:47;21.83;;;9.52;;
68196;SDS011;55019;49.382;11.358;2024-03-02T00:25:13;20.05;;;9.55;;
68196;SDS011;55019;49.382;11.358;2024-03-02T00:27:39;22.75;;;10.23;;
68196;SDS011;55019;49.382;11.358;2024-03-02T00:30:06;20.40;;;9.40;;
68196;SDS011;55019;49.382;11.358;2024-03-02T00:33:07;18.27;;;8.93;;
68196;SDS011;55019;49.382;11.358;2024-03-02T00:35:34;21.30;;;9.52;;
68196;SDS011;55019;49.382;11.358;2024-03-02T00:38:08;20.70;;;9.73;;
68196;SDS011;55019;49.382;11.358;2024-03-02T00:40:34;20.23;;;9.95;;
68196;SDS011;55019;49.382;11.358;2024-03-02T00:43:00;19.52;;;10.10;;
68196;SDS011;55019;49.382;11.358;2024-03-02T00:45:28;20.08;;;9.77;;
68196;SDS011;55019;49.382;11.358;2024-03-02T00:47:55;23.92;;;9.90;;
68196;SDS011;55019;49.382;11.358;2024-03-02T00:50:21;19.63;;;9.25;;
68196;SDS011;55019;49.382;11.358;2024-03-02T00:52:47;19.27;;;9.63;;
68196;SDS011;55019;49.382;11.358;2024-03-02T00:55:14;22.45;;;9.95;;
68196;SDS011;55019;49.382;11.358;2024-03-02T00:57:40;23.73;;;9.73;;
68196;SDS011;55019;49.382;11.358;2024-03-02T01:00:06;23.77;;;8.88;;
68196;SDS011;55019;49.382;11.358;2024-03-02T01:02:35;21.30;;;10.63;;
68196;SDS011;55019;49.382;11.358;2024-03-02T01:05:01;19.83;;;9.35;;
68196;SDS011;55019;49.382;11.358;2024-03-02T01:07:27;21.58;;;9.73;;
68196;SDS011;55019;49.382;11.358;2024-03-02T01:09:53;21.27;;;9.20;;
68196;SDS011;55019;49.382;11.358;2024-03-02T01:12:19;24.05;;;10.90;;
68196;SDS011;55019;49.382;11.358;2024-03-02T01:14:44;19.13;;;9.80;;
68196;SDS011;55019;49.382;11.358;2024-03-02T01:17:10;23.02;;;8.80;;
68196;SDS011;55019;49.382;11.358;2024-03-02T01:19:36;20.48;;;10.23;;
68196;SDS011;55019;49.382;11.358;2024-03-02T01:22:03;22.88;;;10.05;;
68196;SDS011;55019;49.382;11.358;2024-03-02T01:24:29;19.75;;;9.35;;
68196;SDS011;55019;49.382;11.358;2024-03-02T01:26:54;21.45;;;10.55;;
68196;SDS011;55019;49.382;11.358;2024-03-02T01:29:20;24.08;;;10.88;;
68196;SDS011;55019;49.382;11.358;2024-03-02T01:31:46;20.02;;;9.55;;
68196;SDS011;55019;49.382;11.358;2024-03-02T01:34:12;20.45;;;9.65;;
68196;SDS011;55019;49.382;11.358;2024-03-02T01:36:38;18.98;;;10.52;;
68196;SDS011;55019;49.382;11.358;2024-03-02T01:39:03;24.10;;;9.68;;
68196;SDS011;55019;49.382;11.358;2024-03-02T01:41:34;23.10;;;10.50;;
68196;SDS011;55019;49.382;11.358;2024-03-02T01:43:59;18.90;;;8.77;;
68196;SDS011;55019;49.382;11.358;2024-03-02T01:46:25;21.17;;;9.75;;
68196;SDS011;55019;49.382;11.358;2024-03-02T01:48:51;19.35;;;9.27;;
68196;SDS011;55019;49.382;11.358;2024-03-02T01:51:17;21.83;;;9.48;;
68196;SDS011;55019;49.382;11.358;2024-03-02T01:53:43;19.13;;;9.30;;
68196;SDS011;55019;49.382;11.358;2024-03-02T01:56:08;20.98;;;9.73;;
68196;SDS011;55019;49.382;11.358;2024-03-02T01:58:34;20.45;;;9.60;;
68196;SDS011;55019;49.382;11.358;2024-03-02T02:00:59;23.38;;;10.30;;
68196;SDS011;55019;49.382;11.358;2024-03-02T02:03:25;20.20;;;8.95;;
68196;SDS011;55019;49.382;11.358;2024-03-02T02:05:51;22.08;;;10.20;;
68196;SDS011;55019;49.382;11.358;2024-03-02T02:08:17;18.15;;;8.27;;
68196;SDS011;55019;49.382;11.358;2024-03-02T02:10:43;19.52;;;8.55;;
68196;SDS011;55019;49.382;11.358;2024-03-02T02:13:08;20.63;;;9.13;;
68196;SDS011;55019;49.382;11.358;2024-03-02T02:15:34;21.48;;;8.75;;
68196;SDS011;55019;49.382;11.358;2024-03-02T02:18:01;17.63;;;9.02;;
68196;SDS011;55019;49.382;11.358;2024-03-02T02:20:29;21.75;;;9.35;;
68196;SDS011;55019;49.382;11.358;2024-03-02T02:25:23;17.92;;;9.18;;
68196;SDS011;55019;49.382;11.358;2024-03-02T02:27:49;17.30;;;8.02;;
68196;SDS011;55019;49.382;11.358;2024-03-02T02:30:19;19.52;;;8.57;;
68196;SDS011;55019;49.382;11.358;2024-03-02T02:32:46;19.45;;;8.50;;
68196;SDS011;55019;49.382;11.358;2024-03-02T02:35:11;17.83;;;8.88;;
68196;SDS011;55019;49.382;11.358;2024-03-02T02:37:38;17.38;;;8.05;;
68196;SDS011;55019;49.382;11.358;2024-03-02T02:40:04;16.85;;;7.68;;
68196;SDS011;55019;49.382;11.358;2024-03-02T02:42:30;19.90;;;8.07;;
68196;SDS011;55019;49.382;11.358;2024-03-02T02:44:56;20.23;;;8.07;;
68196;SDS011;55019;49.382;11.358;2024-03-02T02:47:21;19.95;;;8.10;;
68196;SDS011;55019;49.382;11.358;2024-03-02T02:49:47;17.85;;;7.53;;
68196;SDS011;55019;49.382;11.358;2024-03-02T02:52:13;17.67;;;8.02;;
68196;SDS011;55019;49.382;11.358;2024-03-02T02:54:38;15.88;;;7.28;;
68196;SDS011;55019;49.382;11.358;2024-03-02T02:57:04;18.10;;;7.93;;
68196;SDS011;55019;49.382;11.358;2024-03-02T02:59:30;14.07;;;7.47;;
68196;SDS011;55019;49.382;11.358;2024-03-02T03:01:55;15.68;;;7.80;;
68196;SDS011;55019;49.382;11.358;2024-03-02T03:04:21;17.67;;;7.28;;
68196;SDS011;55019;49.382;11.358;2024-03-02T03:06:47;15.25;;;7.05;;
68196;SDS011;55019;49.382;11.358;2024-03-02T03:09:12;15.20;;;7.50;;
68196;SDS011;55019;49.382;11.358;2024-03-02T03:11:38;16.13;;;7.05;;
68196;SDS011;55019;49.382;11.358;2024-03-02T03:14:04;12.52;;;6.90;;
68196;SDS011;55019;49.382;11.358;2024-03-02T03:16:30;14.50;;;6.90;;
68196;SDS011;55019;49.382;11.358;2024-03-02T03:18:56;14.10;;;6.85;;
68196;SDS011;55019;49.382;11.358;2024-03-02T03:21:25;15.00;;;6.47;;
68196;SDS011;55019;49.382;11.358;2024-03-02T03:23:50;13.15;;;6.90;;
68196;SDS011;55019;49.382;11.358;2024-03-02T03:26:16;14.73;;;6.82;;
68196;SDS011;55019;49.382;11.358;2024-03-02T03:28:42;12.90;;;6.15;;
68196;SDS011;55019;49.382;11.358;2024-03-02T03:31:07;15.32;;;6.88;;
68196;SDS011;55019;49.382;11.358;2024-03-02T03:33:33;13.10;;;6.57;;
68196;SDS011;55019;49.382;11.358;2024-03-02T03:36:00;13.75;;;6.63;;
68196;SDS011;55019;49.382;11.358;2024-03-02T03:38:26;14.43;;;6.38;;
68196;SDS011;55019;49.382;11.358;2024-03-02T03:40:51;14.85;;;7.45;;
68196;SDS011;55019;49.382;11.358;2024-03-02T03:43:17;12.25;;;6.30;;
68196;SDS011;55019;49.382;11.358;2024-03-02T03:45:43;13.85;;;6.03;;
68196;SDS011;55019;49.382;11.358;2024-03-02T03:48:08;13.57;;;6.43;;
68196;SDS011;55019;49.382;11.358;2024-03-02T03:50:34;14.38;;;6.90;;
68196;SDS011;55019;49.382;11.358;2024-03-02T03:53:00;15.43;;;7.00;;
68196;SDS011;55019;49.382;11.358;2024-03-02T03:55:25;15.07;;;7.03;;
68196;SDS011;55019;49.382;11.358;2024-03-02T03:57:51;14.57;;;6.53;;
68196;SDS011;55019;49.382;11.358;2024-03-02T04:00:17;14.48;;;6.18;;
68196;SDS011;55019;49.382;11.358;2024-03-02T04:02:43;12.82;;;6.22;;
68196;SDS011;55019;49.382;11.358;2024-03-02T04:05:08;12.10;;;6.03;;
68196;SDS011;55019;49.382;11.358;2024-03-02T04:07:36;13.65;;;6.22;;
68196;SDS011;55019;49.382;11.358;2024-03-02T04:10:06;10.52;;;5.93;;
68196;SDS011;55019;49.382;11.358;2024-03-02T04:12:34;11.43;;;6.18;;
68196;SDS011;55019;49.382;11.358;2024-03-02T04:15:01;11.63;;;6.35;;
68196;SDS011;55019;49.382;11.358;2024-03-02T04:17:27;14.60;;;6.18;;
68196;SDS011;55019;49.382;11.358;2024-03-02T04:19:53;11.93;;;6.68;;
68196;SDS011;55019;49.382;11.358;2024-03-02T04:22:19;10.93;;;5.90;;
68196;SDS011;55019;49.382;11.358;2024-03-02T04:24:44;12.25;;;5.88;;
68196;SDS011;55019;49.382;11.358;2024-03-02T04:27:10;15.65;;;6.10;;
68196;SDS011;55019;49.382;11.358;2024-03-02T04:29:36;13.43;;;6.40;;
68196;SDS011;55019;49.382;11.358;2024-03-02T04:32:01;14.38;;;6.95;;
68196;SDS011;55019;49.382;11.358;2024-03-02T04:34:27;13.38;;;6.20;;
68196;SDS011;55019;49.382;11.358;2024-03-02T04:36:53;12.65;;;6.78;;
68196;SDS011;55019;49.382;11.358;2024-03-02T04:39:18;12.43;;;7.10;;
68196;SDS011;55019;49.382;11.358;2024-03-02T04:41:44;12.10;;;6.25;;
68196;SDS011;55019;49.382;11.358;2024-03-02T04:44:10;13.93;;;6.40;;
68196;SDS011;55019;49.382;11.358;2024-03-02T04:46:36;15.57;;;6.90;;
68196;SDS011;55019;49.382;11.358;2024-03-02T04:49:01;13.30;;;6.60;;
68196;SDS011;55019;49.382;11.358;2024-03-02T04:51:27;12.23;;;5.95;;
68196;SDS011;55019;49.382;11.358;2024-03-02T04:53:53;15.65;;;6.55;;
68196;SDS011;55019;49.382;11.358;2024-03-02T04:56:18;15.75;;;7.03;;
68196;SDS011;55019;49.382;11.358;2024-03-02T04:59:09;12.95;;;6.65;;
68196;SDS011;55019;49.382;11.358;2024-03-02T05:01:36;13.48;;;5.97;;
68196;SDS011;55019;49.382;11.358;2024-03-02T05:04:02;13.25;;;6.20;;
68196;SDS011;55019;49.382;11.358;2024-03-02T05:06:27;11.73;;;5.75;;
68196;SDS011;55019;49.382;11.358;2024-03-02T05:08:53;13.32;;;7.03;;
68196;SDS011;55019;49.382;11.358;2024-03-02T05:11:19;11.63;;;5.90;;
68196;SDS011;55019;49.382;11.358;2024-03-02T05:14:06;13.38;;;5.97;;
68196;SDS011;55019;49.382;11.358;2024-03-02T05:16:35;13.18;;;6.65;;
68196;SDS011;55019;49.382;11.358;2024-03-02T05:19:03;11.15;;;6.10;;
68196;SDS011;55019;49.382;11.358;2024-03-02T05:21:32;10.98;;;5.90;;
68196;SDS011;55019;49.382;11.358;2024-03-02T05:23:57;12.65;;;5.75;;
68196;SDS011;55019;49.382;11.358;2024-03-02T05:26:23;13.00;;;5.75;;
68196;SDS011;55019;49.382;11.358;2024-03-02T05:28:49;11.82;;;5.90;;
68196;SDS011;55019;49.382;11.358;2024-03-02T05:31:15;12.50;;;5.80;;
68196;SDS011;55019;49.382;11.358;2024-03-02T05:33:40;14.10;;;5.82;;
68196;SDS011;55019;49.382;11.358;2024-03-02T05:36:06;16.35;;;6.53;;
68196;SDS011;55019;49.382;11.358;2024-03-02T05:38:34;12.30;;;6.00;;
68196;SDS011;55019;49.382;11.358;2024-03-02T05:41:00;12.18;;;6.50;;
68196;SDS011;55019;49.382;11.358;2024-03-02T05:43:25;11.63;;;5.68;;
68196;SDS011;55019;49.382;11.358;2024-03-02T05:45:51;14.07;;;6.35;;
68196;SDS011;55019;49.382;11.358;2024-03-02T05:48:17;14.23;;;6.28;;
68196;SDS011;55019;49.382;11.358;2024-03-02T05:50:42;13.50;;;5.90;;
68196;SDS011;55019;49.382;11.358;2024-03-02T05:53:08;14.02;;;6.10;;
68196;SDS011;55019;49.382;11.358;2024-03-02T05:55:34;14.85;;;6.15;;
68196;SDS011;55019;49.382;11.358;2024-03-02T05:58:00;12.63;;;5.65;;
68196;SDS011;55019;49.382;11.358;2024-03-02T06:00:31;12.13;;;5.63;;
68196;SDS011;55019;49.382;11.358;2024-03-02T06:02:58;10.02;;;5.53;;
68196;SDS011;55019;49.382;11.358;2024-03-02T06:05:24;12.88;;;5.13;;
68196;SDS011;55019;49.382;11.358;2024-03-02T06:07:50;11.00;;;5.45;;
68196;SDS011;55019;49.382;11.358;2024-03-02T06:10:16;13.00;;;6.22;;
68196;SDS011;55019;49.382;11.358;2024-03-02T06:12:42;13.68;;;6.18;;
68196;SDS011;55019;49.382;11.358;2024-03-02T06:15:09;11.20;;;5.45;;
68196;SDS011;55019;49.382;11.358;2024-03-02T06:17:35;12.20;;;5.18;;
68196;SDS011;55019;49.382;11.358;2024-03-02T06:20:01;17.13;;;9.02;;
68196;SDS011;55019;49.382;11.358;2024-03-02T06:22:27;15.98;;;7.35;;
68196;SDS011;55019;49.382;11.358;2024-03-02T06:24:53;17.70;;;7.30;;
68196;SDS011;55019;49.382;11.358;2024-03-02T06:27:19;14.50;;;7.28;;
68196;SDS011;55019;49.382;11.358;2024-03-02T06:29:45;22.92;;;12.00;;
68196;SDS011;55019;49.382;11.358;2024-03-02T06:32:10;17.95;;;9.10;;
68196;SDS011;55019;49.382;11.358;2024-03-02T06:34:36;20.65;;;9.98;;
68196;SDS011;55019;49.382;11.358;2024-03-02T06:37:02;15.80;;;7.40;;
68196;SDS011;55019;49.382;11.358;2024-03-02T06:39:28;13.68;;;6.30;;
68196;SDS011;55019;49.382;11.358;2024-03-02T06:41:54;11.70;;;5.82;;
68196;SDS011;55019;49.382;11.358;2024-03-02T06:44:19;13.27;;;6.47;;
68196;SDS011;55019;49.382;11.358;2024-03-02T06:46:46;13.48;;;6.50;;
68196;SDS011;55019;49.382;11.358;2024-03-02T06:49:12;12.20;;;6.50;;
68196;SDS011;55019;49.382;11.358;2024-03-02T06:51:38;12.82;;;6.50;;
68196;SDS011;55019;49.382;11.358;2024-03-02T06:54:03;14.07;;;6.32;;
68196;SDS011;55019;49.382;11.358;2024-03-02T06:56:29;15.63;;;7.25;;
68196;SDS011;55019;49.382;11.358;2024-03-02T06:58:56;17.00;;;7.47;;
68196;SDS011;55019;49.382;11.358;2024-03-02T07:01:21;14.65;;;7.00;;
68196;SDS011;55019;49.382;11.358;2024-03-02T07:03:47;15.30;;;7.57;;
68196;SDS011;55019;49.382;11.358;2024-03-02T07:06:13;16.15;;;7.13;;
68196;SDS011;55019;49.382;11.358;2024-03-02T07:08:39;14.93;;;7.00;;
68196;SDS011;55019;49.382;11.358;2024-03-02T07:11:05;13.07;;;6.88;;
68196;SDS011;55019;49.382;11.358;2024-03-02T07:13:30;12.95;;;7.07;;
68196;SDS011;55019;49.382;11.358;2024-03-02T07:15:56;12.63;;;6.15;;
68196;SDS011;55019;49.382;11.358;2024-03-02T07:18:28;14.45;;;6.13;;
68196;SDS011;55019;49.382;11.358;2024-03-02T07:20:54;13.27;;;6.00;;
68196;SDS011;55019;49.382;11.358;2024-03-02T07:23:21;13.77;;;6.95;;
68196;SDS011;55019;49.382;11.358;2024-03-02T07:25:49;15.25;;;6.70;;
68196;SDS011;55019;49.382;11.358;2024-03-02T07:28:15;15.18;;;6.57;;
68196;SDS011;55019;49.382;11.358;2024-03-02T07:30:41;13.75;;;6.40;;
68196;SDS011;55019;49.382;11.358;2024-03-02T07:33:07;15.45;;;6.43;;
68196;SDS011;55019;49.382;11.358;2024-03-02T07:35:33;13.35;;;6.40;;
68196;SDS011;55019;49.382;11.358;2024-03-02T07:37:58;12.50;;;5.72;;
68196;SDS011;55019;49.382;11.358;2024-03-02T07:40:24;13.30;;;6.47;;
68196;SDS011;55019;49.382;11.358;2024-03-02T07:42:50;11.52;;;6.18;;
68196;SDS011;55019;49.382;11.358;2024-03-02T07:45:16;12.15;;;6.63;;
68196;SDS011;55019;49.382;11.358;2024-03-02T07:47:42;13.50;;;7.15;;
68196;SDS011;55019;49.382;11.358;2024-03-02T07:50:08;12.20;;;6.65;;
68196;SDS011;55019;49.382;11.358;2024-03-02T07:52:34;11.93;;;6.63;;
68196;SDS011;55019;49.382;11.358;2024-03-02T07:55:00;12.00;;;6.53;;
68196;SDS011;55019;49.382;11.358;2024-03-02T07:57:25;15.45;;;6.85;;
68196;SDS011;55019;49.382;11.358;2024-03-02T07:59:51;13.95;;;7.20;;
68196;SDS011;55019;49.382;11.358;2024-03-02T08:02:17;12.82;;;6.90;;
68196;SDS011;55019;49.382;11.358;2024-03-02T08:04:43;13.85;;;7.18;;
68196;SDS011;55019;49.382;11.358;2024-03-02T08:07:11;13.50;;;6.68;;
68196;SDS011;55019;49.382;11.358;2024-03-02T08:09:37;11.50;;;6.22;;
68196;SDS011;55019;49.382;11.358;2024-03-02T08:12:02;12.25;;;6.75;;
68196;SDS011;55019;49.382;11.358;2024-03-02T08:14:28;13.00;;;7.07;;
68196;SDS011;55019;49.382;11.358;2024-03-02T08:16:54;11.40;;;6.38;;
68196;SDS011;55019;49.382;11.358;2024-03-02T08:19:20;13.32;;;6.93;;
68196;SDS011;55019;49.382;11.358;2024-03-02T08:21:46;11.80;;;6.20;;
68196;SDS011;55019;49.382;11.358;2024-03-02T08:24:11;10.20;;;5.55;;
68196;SDS011;55019;49.382;11.358;2024-03-02T08:26:37;9.73;;;6.47;;
68196;SDS011;55019;49.382;11.358;2024-03-02T08:29:03;9.50;;;5.60;;
68196;SDS011;55019;49.382;11.358;2024-03-02T08:31:29;10.68;;;6.20;;
68196;SDS011;55019;49.382;11.358;2024-03-02T08:33:55;10.38;;;6.35;;
68196;SDS011;55019;49.382;11.358;2024-03-02T08:36:22;11.65;;;6.53;;
68196;SDS011;55019;49.382;11.358;2024-03-02T08:38:51;9.02;;;5.85;;
68196;SDS011;55019;49.382;11.358;2024-03-02T08:41:17;10.05;;;6.20;;
68196;SDS011;55019;49.382;11.358;2024-03-02T08:43:42;11.43;;;6.78;;
68196;SDS011;55019;49.382;11.358;2024-03-02T08:46:08;9.70;;;5.88;;
68196;SDS011;55019;49.382;11.358;2024-03-02T08:48:34;10.85;;;6.35;;
68196;SDS011;55019;49.382;11.358;2024-03-02T08:51:00;14.88;;;6.22;;
68196;SDS011;55019;49.382;11.358;2024-03-02T08:53:26;8.55;;;5.53;;
68196;SDS011;55019;49.382;11.358;2024-03-02T08:55:52;10.18;;;6.35;;
68196;SDS011;55019;49.382;11.358;2024-03-02T08:58:18;11.43;;;6.88;;
68196;SDS011;55019;49.382;11.358;2024-03-02T09:00:43;10.77;;;7.65;;
68196;SDS011;55019;49.382;11.358;2024-03-02T09:03:09;10.38;;;6.43;;
68196;SDS011;55019;49.382;11.358;2024-03-02T09:05:35;10.82;;;6.65;;
68196;SDS011;55019;49.382;11.358;2024-03-02T09:08:01;11.23;;;7.25;;
68196;SDS011;55019;49.382;11.358;2024-03-02T09:12:54;11.75;;;6.72;;
68196;SDS011;55019;49.382;11.358;2024-03-02T09:15:20;10.95;;;6.57;;
68196;SDS011;55019;49.382;11.358;2024-03-02T09:17:46;12.63;;;8.10;;
68196;SDS011;55019;49.382;11.358;2024-03-02T09:20:12;13.00;;;7.57;;
68196;SDS011;55019;49.382;11.358;2024-03-02T09:22:39;11.27;;;6.90;;
68196;SDS011;55019;49.382;11.358;2024-03-02T09:25:05;9.85;;;6.45;;
68196;SDS011;55019;49.382;11.358;2024-03-02T09:27:37;10.98;;;6.82;;
68196;SDS011;55019;49.382;11.358;2024-03-02T09:30:10;11.85;;;6.60;;
68196;SDS011;55019;49.382;11.358;2024-03-02T09:32:37;11.32;;;6.82;;
68196;SDS011;55019;49.382;11.358;2024-03-02T09:35:03;9.60;;;6.40;;
68196;SDS011;55019;49.382;11.358;2024-03-02T09:37:29;9.88;;;6.03;;
68196;SDS011;55019;49.382;11.358;2024-03-02T09:39:57;7.78;;;5.13;;
68196;SDS011;55019;49.382;11.358;2024-03-02T09:42:23;8.65;;;5.00;;
68196;SDS011;55019;49.382;11.358;2024-03-02T09:44:49;8.82;;;4.90;;
68196;SDS011;55019;49.382;11.358;2024-03-02T09:47:15;8.05;;;4.90;;
68196;SDS011;55019;49.382;11.358;2024-03-02T09:49:41;9.63;;;4.80;;
68196;SDS011;55019;49.382;11.358;2024-03-02T09:52:06;10.05;;;5.22;;
68196;SDS011;55019;49.382;11.358;2024-03-02T09:54:32;9.57;;;5.05;;
68196;SDS011;55019;49.382;11.358;2024-03-02T09:56:58;9.43;;;4.95;;
68196;SDS011;55019;49.382;11.358;2024-03-02T09:59:26;9.15;;;5.60;;
68196;SDS011;55019;49.382;11.358;2024-03-02T10:01:57;7.95;;;5.13;;
68196;SDS011;55019;49.382;11.358;2024-03-02T10:04:27;9.27;;;5.20;;
68196;SDS011;55019;49.382;11.358;2024-03-02T10:07:10;6.47;;;4.53;;
68196;SDS011;55019;49.382;11.358;2024-03-02T10:09:43;7.63;;;5.38;;
68196;SDS011;55019;49.382;11.358;2024-03-02T10:12:13;8.18;;;5.00;;
68196;SDS011;55019;49.382;11.358;2024-03-02T10:14:40;7.90;;;5.05;;
68196;SDS011;55019;49.382;11.358;2024-03-02T10:17:07;8.70;;;5.25;;
68196;SDS011;55019;49.382;11.358;2024-03-02T10:19:34;8.80;;;5.40;;
68196;SDS011;55019;49.382;11.358;2024-03-02T10:22:01;9.75;;;4.85;;
68196;SDS011;55019;49.382;11.358;2024-03-02T10:24:28;9.90;;;5.45;;
68196;SDS011;55019;49.382;11.358;2024-03-02T10:27:01;9.82;;;5.13;;
68196;SDS011;55019;49.382;11.358;2024-03-02T10:29:29;8.43;;;5.32;;
68196;SDS011;55019;49.382;11.358;2024-03-02T10:31:55;10.50;;;6.00;;
68196;SDS011;55019;49.382;11.358;2024-03-02T10:34:21;8.27;;;5.07;;
68196;SDS011;55019;49.382;11.358;2024-03-02T10:36:47;8.35;;;5.80;;
68196;SDS011;55019;49.382;11.358;2024-03-02T10:39:14;9.07;;;5.28;;
68196;SDS011;55019;49.382;11.358;2024-03-02T10:41:40;9.15;;;5.85;;
68196;SDS011;55019;49.382;11.358;2024-03-02T10:44:06;11.43;;;6.25;;
68196;SDS011;55019;49.382;11.358;2024-03-02T10:46:34;11.15;;;6.72;;
68196;SDS011;55019;49.382;11.358;2024-03-02T10:49:02;10.38;;;5.97;;
68196;SDS011;55019;49.382;11.358;2024-03-02T10:51:30;10.07;;;5.85;;
68196;SDS011;55019;49.382;11.358;2024-03-02T10:54:01;10.18;;;6.00;;
68196;SDS011;55019;49.382;11.358;2024-03-02T10:56:29;12.70;;;6.53;;
68196;SDS011;55019;49.382;11.358;2024-03-02T11:01:50;10.15;;;6.93;;
68196;SDS011;55019;49.382;11.358;2024-03-02T11:04:18;13.00;;;6.95;;
68196;SDS011;55019;49.382;11.358;2024-03-02T11:06:49;12.68;;;7.00;;
68196;SDS011;55019;49.382;11.358;2024-03-02T11:09:16;12.20;;;7.03;;
68196;SDS011;55019;49.382;11.358;2024-03-02T11:11:45;12.95;;;7.35;;
68196;SDS011;55019;49.382;11.358;2024-03-02T11:14:27;12.40;;;7.50;;
68196;SDS011;55019;49.382;11.358;2024-03-02T11:16:56;14.60;;;7.97;;
68196;SDS011;55019;49.382;11.358;2024-03-02T11:19:23;15.02;;;7.85;;
68196;SDS011;55019;49.382;11.358;2024-03-02T11:21:50;14.23;;;7.05;;
68196;SDS011;55019;49.382;11.358;2024-03-02T11:26:53;13.38;;;7.75;;
68196;SDS011;55019;49.382;11.358;2024-03-02T11:32:06;12.27;;;7.07;;
68196;SDS011;55019;49.382;11.358;2024-03-02T11:34:41;13.30;;;7.72;;
68196;SDS011;55019;49.382;11.358;2024-03-02T11:37:12;13.57;;;7.80;;
68196;SDS011;55019;49.382;11.358;2024-03-02T11:39:43;16.83;;;9.75;;
68196;SDS011;55019;49.382;11.358;2024-03-02T11:42:10;14.02;;;8.60;;
68196;SDS011;55019;49.382;11.358;2024-03-02T11:44:39;15.73;;;8.77;;
68196;SDS011;55019;49.382;11.358;2024-03-02T11:47:08;14.77;;;8.93;;
68196;SDS011;55019;49.382;11.358;2024-03-02T11:49:40;14.55;;;8.48;;
68196;SDS011;55019;49.382;11.358;2024-03-02T11:52:13;14.75;;;8.35;;
68196;SDS011;55019;49.382;11.358;2024-03-02T11:54:41;14.32;;;7.97;;
68196;SDS011;55019;49.382;11.358;2024-03-02T11:57:17;13.35;;;7.78;;
68196;SDS011;55019;49.382;11.358;2024-03-02T11:59:45;14.45;;;8.40;;
68196;SDS011;55019;49.382;11.358;2024-03-02T12:02:15;14.48;;;8.90;;
68196;SDS011;55019;49.382;11.358;2024-03-02T12:04:43;15.52;;;9.98;;
68196;SDS011;55019;49.382;11.358;2024-03-02T12:07:10;14.57;;;8.20;;
68196;SDS011;55019;49.382;11.358;2024-03-02T12:09:36;13.50;;;8.85;;
68196;SDS011;55019;49.382;11.358;2024-03-02T12:12:03;13.48;;;8.35;;
68196;SDS011;55019;49.382;11.358;2024-03-02T12:14:32;12.32;;;7.55;;
68196;SDS011;55019;49.382;11.358;2024-03-02T12:17:00;13.40;;;8.57;;
68196;SDS011;55019;49.382;11.358;2024-03-02T12:19:26;13.40;;;8.02;;
68196;SDS011;55019;49.382;11.358;2024-03-02T12:21:59;11.63;;;8.30;;
68196;SDS011;55019;49.382;11.358;2024-03-02T12:24:28;13.55;;;8.38;;
68196;SDS011;55019;49.382;11.358;2024-03-02T12:26:55;15.43;;;9.15;;
68196;SDS011;55019;49.382;11.358;2024-03-02T12:29:22;15.38;;;7.78;;
68196;SDS011;55019;49.382;11.358;2024-03-02T12:31:49;15.20;;;8.98;;
68196;SDS011;55019;49.382;11.358;2024-03-02T12:34:16;14.75;;;8.52;;
68196;SDS011;55019;49.382;11.358;2024-03-02T12:36:43;15.73;;;8.45;;
68196;SDS011;55019;49.382;11.358;2024-03-02T12:39:09;12.90;;;8.25;;
68196;SDS011;55019;49.382;11.358;2024-03-02T12:41:37;14.75;;;8.82;;
68196;SDS011;55019;49.382;11.358;2024-03-02T12:44:03;15.90;;;8.85;;
68196;SDS011;55019;49.382;11.358;2024-03-02T12:46:30;15.18;;;9.68;;
68196;SDS011;55019;49.382;11.358;2024-03-02T12:48:56;15.82;;;9.00;;
68196;SDS011;55019;49.382;11.358;2024-03-02T12:51:23;17.42;;;8.65;;
68196;SDS011;55019;49.382;11.358;2024-03-02T12:53:55;15.20;;;8.30;;
68196;SDS011;55019;49.382;11.358;2024-03-02T12:56:21;18.58;;;9.57;;
68196;SDS011;55019;49.382;11.358;2024-03-02T12:58:47;16.10;;;8.38;;
68196;SDS011;55019;49.382;11.358;2024-03-02T13:01:14;14.90;;;8.55;;
68196;SDS011;55019;49.382;11.358;2024-03-02T13:06:06;14.80;;;8.20;;
68196;SDS011;55019;49.382;11.358;2024-03-02T13:08:33;14.85;;;8.23;;
68196;SDS011;55019;49.382;11.358;2024-03-02T13:10:59;17.48;;;9.20;;
68196;SDS011;55019;49.382;11.358;2024-03-02T13:13:24;15.35;;;7.97;;
68196;SDS011;55019;49.382;11.358;2024-03-02T13:15:54;17.15;;;9.20;;
68196;SDS011;55019;49.382;11.358;2024-03-02T13:18:21;16.98;;;10.00;;
68196;SDS011;55019;49.382;11.358;2024-03-02T13:20:47;18.33;;;9.55;;
68196;SDS011;55019;49.382;11.358;2024-03-02T13:23:13;15.13;;;8.80;;
68196;SDS011;55019;49.382;11.358;2024-03-02T13:25:38;15.10;;;9.68;;
68196;SDS011;55019;49.382;11.358;2024-03-02T13:28:04;15.77;;;8.77;;
68196;SDS011;55019;49.382;11.358;2024-03-02T13:30:30;15.60;;;8.15;;
68196;SDS011;55019;49.382;11.358;2024-03-02T13:32:56;16.70;;;8.23;;
68196;SDS011;55019;49.382;11.358;2024-03-02T13:35:21;15.80;;;8.18;;
68196;SDS011;55019;49.382;11.358;2024-03-02T13:37:47;13.32;;;7.82;;
68196;SDS011;55019;49.382;11.358;2024-03-02T13:40:13;16.60;;;8.85;;
68196;SDS011;55019;49.382;11.358;2024-03-02T13:42:43;15.10;;;7.65;;
68196;SDS011;55019;49.382;11.358;2024-03-02T13:45:08;15.75;;;7.82;;
68196;SDS011;55019;49.382;11.358;2024-03-02T13:47:34;14.60;;;7.95;;
68196;SDS011;55019;49.382;11.358;2024-03-02T13:50:00;13.70;;;7.57;;
68196;SDS011;55019;49.382;11.358;2024-03-02T13:52:27;12.73;;;6.60;;
68196;SDS011;55019;49.382;11.358;2024-03-02T13:54:53;15.50;;;7.05;;
68196;SDS011;55019;49.382;11.358;2024-03-02T13:57:19;13.25;;;6.93;;
68196;SDS011;55019;49.382;11.358;2024-03-02T13:59:45;15.90;;;6.97;;
68196;SDS011;55019;49.382;11.358;2024-03-02T14:02:11;12.40;;;7.15;;
68196;SDS011;55019;49.382;11.358;2024-03-02T14:04:37;12.95;;;6.03;;
68196;SDS011;55019;49.382;11.358;2024-03-02T14:07:04;13.93;;;5.90;;
68196;SDS011;55019;49.382;11.358;2024-03-02T14:09:33;11.48;;;5.97;;
68196;SDS011;55019;49.382;11.358;2024-03-02T14:11:59;11.93;;;6.07;;
68196;SDS011;55019;49.382;11.358;2024-03-02T14:14:26;12.93;;;6.95;;
68196;SDS011;55019;49.382;11.358;2024-03-02T14:16:52;12.27;;;6.50;;
68196;SDS011;55019;49.382;11.358;2024-03-02T14:19:19;13.07;;;6.63;;
68196;SDS011;55019;49.382;11.358;2024-03-02T14:21:46;12.05;;;5.82;;
68196;SDS011;55019;49.382;11.358;2024-03-02T14:24:13;12.50;;;6.45;;
68196;SDS011;55019;49.382;11.358;2024-03-02T14:26:39;13.00;;;6.38;;
68196;SDS011;55019;49.382;11.358;2024-03-02T14:29:06;11.85;;;6.20;;
68196;SDS011;55019;49.382;11.358;2024-03-02T14:31:31;15.45;;;6.45;;
68196;SDS011;55019;49.382;11.358;2024-03-02T14:33:57;12.05;;;6.38;;
68196;SDS011;55019;49.382;11.358;2024-03-02T14:36:23;13.98;;;6.07;;
68196;SDS011;55019;49.382;11.358;2024-03-02T14:38:52;11.23;;;5.93;;